createdAt,value
2022-11-05T00:01:22.988Z,22.50
2022-11-05T00:04:10.323Z,22.50
2022-11-05T00:07:01.449Z,22.50
2022-11-05T00:09:40.301Z,22.40
2022-11-05T00:12:32.509Z,22.50
2022-11-05T00:15:19.633Z,22.50
2022-11-05T00:17:48.801Z,22.50
2022-11-05T00:20:17.989Z,22.40
2022-11-05T00:23:05.223Z,22.50
2022-11-05T00:25:34.776Z,22.50
2022-11-05T00:28:05.445Z,22.50
2022-11-05T00:30:34.524Z,22.50
2022-11-05T00:33:04.507Z,22.50
2022-11-05T00:35:33.654Z,22.60
2022-11-05T00:38:02.848Z,22.60
2022-11-05T00:40:32.055Z,22.70
2022-11-05T00:43:19.304Z,22.80
2022-11-05T00:45:48.477Z,22.90
2022-11-05T00:48:35.815Z,23.00
2022-11-05T00:51:05.041Z,23.00
2022-11-05T00:53:34.337Z,23.10
2022-11-05T00:56:03.851Z,23.20
2022-11-05T00:58:32.989Z,23.20
2022-11-05T01:01:04.588Z,23.30
2022-11-05T01:03:38.372Z,23.40
2022-11-05T01:06:17.523Z,23.50
2022-11-05T01:08:48.552Z,23.50
2022-11-05T01:11:36.337Z,23.70
2022-11-05T01:14:10.748Z,23.70
2022-11-05T01:16:41.939Z,23.80
2022-11-05T01:19:13.450Z,23.80
2022-11-05T01:21:42.648Z,23.90
2022-11-05T01:24:12.758Z,24.00
2022-11-05T01:26:41.959Z,24.10
2022-11-05T01:29:13.463Z,24.10
2022-11-05T01:31:43.249Z,24.20
2022-11-05T01:34:12.410Z,24.20
2022-11-05T01:36:41.638Z,24.20
2022-11-05T01:39:10.986Z,24.30
2022-11-05T01:41:40.142Z,24.30
2022-11-05T01:45:13.799Z,24.30
2022-11-05T01:48:17.680Z,24.40
2022-11-05T01:51:06.070Z,24.50
2022-11-05T01:53:42.592Z,24.60
2022-11-05T01:56:23.545Z,24.70
2022-11-05T01:59:04.377Z,24.80
2022-11-05T02:01:34.806Z,24.90
2022-11-05T02:04:10.087Z,25.00
2022-11-05T02:06:47.537Z,25.10
2022-11-05T02:09:49.427Z,25.10
2022-11-05T02:12:20.951Z,25.20
2022-11-05T02:14:50.252Z,25.30
2022-11-05T02:17:34.190Z,25.30
2022-11-05T02:20:18.285Z,25.40
2022-11-05T02:23:19.949Z,25.40
2022-11-05T02:26:25.700Z,25.50
2022-11-05T02:29:22.348Z,25.60
2022-11-05T02:32:32.659Z,25.60
2022-11-05T02:35:19.362Z,25.80
2022-11-05T02:38:00.910Z,25.80
2022-11-05T02:40:51.543Z,25.90
2022-11-05T02:43:46.747Z,26.00
2022-11-05T02:46:50.969Z,26.10
2022-11-05T02:49:54.895Z,26.10
2022-11-05T02:53:16.822Z,26.20
2022-11-05T02:56:11.979Z,26.20
2022-11-05T02:58:41.044Z,26.30
2022-11-05T03:01:13.612Z,26.40
2022-11-05T03:03:56.116Z,26.40
2022-11-05T03:07:02.294Z,26.40
2022-11-05T03:09:52.324Z,26.50
2022-11-05T03:13:01.154Z,26.60
2022-11-05T03:15:54.007Z,26.70
2022-11-05T03:18:48.791Z,26.80
2022-11-05T03:21:36.760Z,26.80
2022-11-05T03:24:24.691Z,26.90
2022-11-05T03:27:04.325Z,27.00
2022-11-05T03:29:48.870Z,27.10
2022-11-05T03:32:21.923Z,27.10
2022-11-05T03:35:00.232Z,27.20
2022-11-05T03:37:35.966Z,27.30
2022-11-05T03:40:09.986Z,27.40
2022-11-05T03:42:44.174Z,27.40
2022-11-05T03:45:24.941Z,27.50
2022-11-05T03:48:00.173Z,27.50
2022-11-05T03:50:41.450Z,27.60
2022-11-05T03:53:28.407Z,27.70
2022-11-05T03:56:24.367Z,27.80
2022-11-05T03:58:58.972Z,27.80
2022-11-05T04:01:31.391Z,27.90
2022-11-05T04:04:00.887Z,27.90
2022-11-05T04:06:48.133Z,28.00
2022-11-05T04:09:35.462Z,28.10
2022-11-05T04:12:23.189Z,28.20
2022-11-05T04:14:53.642Z,28.20
2022-11-05T04:17:22.870Z,28.30
2022-11-05T04:20:10.215Z,28.30
2022-11-05T04:22:58.135Z,28.40
2022-11-05T04:25:27.403Z,28.50
2022-11-05T04:28:01.729Z,28.60
2022-11-05T04:30:30.947Z,28.70
2022-11-05T04:33:11.790Z,28.80
2022-11-05T04:35:49.082Z,29.00
2022-11-05T04:38:21.150Z,29.10
2022-11-05T04:40:50.656Z,29.10
2022-11-05T04:43:21.400Z,29.20
2022-11-05T04:45:50.845Z,29.30
2022-11-05T04:48:19.987Z,29.40
2022-11-05T04:50:49.293Z,29.50
2022-11-05T04:53:18.399Z,29.70
2022-11-05T04:55:47.552Z,29.80
2022-11-05T04:58:16.752Z,29.90
2022-11-05T05:00:47.123Z,30.00
2022-11-05T05:03:16.435Z,30.10
2022-11-05T05:05:45.535Z,30.20
2022-11-05T05:08:14.741Z,30.20
2022-11-05T05:10:43.916Z,30.30
2022-11-05T05:13:14.167Z,30.40
2022-11-05T05:15:43.386Z,30.50
2022-11-05T05:18:12.530Z,30.60
2022-11-05T05:20:59.991Z,30.70
2022-11-05T05:23:29.415Z,30.80
2022-11-05T05:26:04.743Z,30.80
2022-11-05T05:28:34.547Z,30.80
2022-11-05T05:31:04.317Z,30.80
2022-11-05T05:33:33.483Z,30.70
2022-11-05T05:36:07.095Z,30.60
2022-11-05T05:38:40.977Z,30.60
2022-11-05T05:41:10.537Z,30.60
2022-11-05T05:43:39.691Z,30.60
2022-11-05T05:46:12.940Z,30.60
2022-11-05T05:48:43.067Z,30.60
2022-11-05T05:51:13.833Z,30.60
2022-11-05T05:53:42.945Z,30.70
2022-11-05T05:56:15.783Z,30.80
2022-11-05T05:58:44.956Z,30.90
2022-11-05T06:01:19.414Z,30.90
2022-11-05T06:03:50.816Z,31.10
2022-11-05T06:06:23.695Z,31.20
2022-11-05T06:08:52.835Z,31.30
2022-11-05T06:11:22.040Z,31.30
2022-11-05T06:13:51.530Z,31.40
2022-11-05T06:16:20.800Z,31.50
2022-11-05T06:18:50.180Z,31.70
2022-11-05T06:21:20.408Z,31.70
2022-11-05T06:23:50.734Z,31.80
2022-11-05T06:26:21.361Z,31.80
2022-11-05T06:28:50.578Z,31.90
2022-11-05T06:31:19.743Z,31.90
2022-11-05T06:33:49.521Z,32.10
2022-11-05T06:36:21.011Z,32.10
2022-11-05T06:38:50.204Z,32.20
2022-11-05T06:41:19.284Z,32.10
2022-11-05T06:43:48.414Z,32.20
2022-11-05T06:46:17.906Z,32.20
2022-11-05T06:48:47.070Z,32.20
2022-11-05T06:51:16.424Z,32.10
2022-11-05T06:53:45.649Z,32.10
2022-11-05T06:56:14.928Z,32.20
2022-11-05T06:58:44.499Z,32.20
2022-11-05T07:01:14.659Z,32.20
2022-11-05T07:03:45.674Z,32.30
2022-11-05T07:06:14.821Z,32.30
2022-11-05T07:08:44.013Z,32.30
2022-11-05T07:11:13.206Z,32.40
2022-11-05T07:13:42.453Z,32.40
2022-11-05T07:16:11.841Z,32.40
2022-11-05T07:18:41.005Z,32.40
2022-11-05T07:21:10.130Z,32.40
2022-11-05T07:23:39.302Z,32.40
2022-11-05T07:26:08.471Z,32.50
2022-11-05T07:28:37.681Z,32.50
2022-11-05T07:31:07.029Z,32.50
2022-11-05T07:33:36.844Z,32.60
2022-11-05T07:36:06.517Z,32.60
2022-11-05T07:38:35.799Z,32.50
2022-11-05T07:41:05.494Z,32.50
2022-11-05T07:43:34.602Z,32.30
2022-11-05T07:46:03.840Z,32.20
2022-11-05T07:48:32.990Z,32.00
2022-11-05T07:51:02.156Z,31.90
2022-11-05T07:53:31.343Z,31.80
2022-11-05T07:56:02.748Z,31.70
2022-11-05T07:58:32.070Z,31.70
2022-11-05T08:01:01.739Z,31.70
2022-11-05T08:03:31.625Z,31.70
2022-11-05T08:06:01.325Z,31.80
2022-11-05T08:08:30.544Z,31.80
2022-11-05T08:11:12.074Z,31.90
2022-11-05T08:13:41.421Z,31.90
2022-11-05T08:16:11.747Z,32.00
2022-11-05T08:18:41.054Z,32.10
2022-11-05T08:21:10.530Z,32.10
2022-11-05T08:23:40.313Z,32.10
2022-11-05T08:26:09.508Z,32.20
2022-11-05T08:28:38.718Z,32.20
2022-11-05T08:31:08.036Z,32.20
2022-11-05T08:33:37.259Z,32.20
2022-11-05T08:36:07.035Z,32.20
2022-11-05T08:38:36.267Z,32.30
2022-11-05T08:41:05.831Z,32.30
2022-11-05T08:43:34.983Z,32.30
2022-11-05T08:46:04.371Z,32.20
2022-11-05T08:48:33.523Z,32.20
2022-11-05T08:51:03.071Z,32.20
2022-11-05T08:53:32.278Z,32.20
2022-11-05T08:56:01.671Z,32.20
2022-11-05T08:58:30.870Z,32.10
2022-11-05T09:01:04.736Z,32.10
2022-11-05T09:03:34.427Z,32.00
2022-11-05T09:06:03.605Z,31.90
2022-11-05T09:08:32.791Z,31.90
2022-11-05T09:11:02.276Z,31.90
2022-11-05T09:13:31.465Z,31.80
2022-11-05T09:16:01.253Z,31.80
2022-11-05T09:18:30.748Z,31.80
2022-11-05T09:20:59.924Z,31.80
2022-11-05T09:23:29.057Z,31.80
2022-11-05T09:25:58.272Z,31.70
2022-11-05T09:28:29.189Z,31.70
2022-11-05T09:30:58.507Z,31.60
2022-11-05T09:33:29.107Z,31.50
2022-11-05T09:38:38.804Z,31.30
2022-11-05T09:41:38.518Z,31.20
2022-11-05T09:44:49.257Z,31.10
2022-11-05T09:47:29.085Z,30.90
2022-11-05T09:50:02.174Z,30.80
2022-11-05T09:52:35.367Z,30.70
2022-11-05T09:55:29.107Z,30.60
2022-11-05T09:58:03.596Z,30.50
2022-11-05T10:00:35.269Z,30.50
2022-11-05T10:03:16.631Z,30.40
2022-11-05T10:05:49.211Z,30.40
2022-11-05T10:08:44.301Z,30.30
2022-11-05T10:11:35.424Z,30.20
2022-11-05T10:14:43.157Z,30.20
2022-11-05T10:17:27.902Z,30.10
2022-11-05T10:20:15.070Z,30.00
2022-11-05T10:22:49.291Z,30.00
2022-11-05T10:25:22.496Z,29.90
2022-11-05T10:27:57.009Z,29.90
2022-11-05T10:30:26.241Z,29.80
2022-11-05T10:33:01.234Z,29.80
2022-11-05T10:35:35.343Z,29.70
2022-11-05T10:38:04.792Z,29.70
2022-11-05T10:41:04.723Z,29.60
2022-11-05T10:44:18.814Z,29.50
2022-11-05T10:47:20.063Z,29.50
2022-11-05T10:50:02.179Z,29.30
2022-11-05T10:52:50.316Z,29.20
2022-11-05T10:55:32.925Z,29.20
2022-11-05T10:58:25.841Z,29.10
2022-11-05T11:00:54.932Z,29.00
2022-11-05T11:03:54.798Z,29.00
2022-11-05T11:06:40.510Z,28.90
2022-11-05T11:09:30.442Z,28.80
2022-11-05T11:12:40.659Z,28.80
2022-11-05T11:15:24.003Z,28.80
2022-11-05T11:17:53.502Z,28.70
2022-11-05T11:20:32.743Z,28.60
2022-11-05T11:23:15.842Z,28.60
2022-11-05T11:26:01.568Z,28.50
2022-11-05T11:28:39.673Z,28.50
2022-11-05T11:31:19.138Z,28.40
2022-11-05T11:33:54.329Z,28.40
2022-11-05T11:36:33.494Z,28.30
2022-11-05T11:39:06.740Z,28.30
2022-11-05T11:41:44.014Z,28.20
2022-11-05T11:44:30.523Z,28.20
2022-11-05T11:47:10.511Z,28.10
2022-11-05T11:49:53.260Z,28.10
2022-11-05T11:52:36.382Z,28.00
2022-11-05T11:55:14.509Z,28.00
2022-11-05T11:57:54.474Z,27.90
2022-11-05T12:00:27.980Z,27.90
2022-11-05T12:03:14.893Z,27.80
2022-11-05T12:06:16.083Z,27.80
2022-11-05T12:09:29.352Z,27.80
2022-11-05T12:12:21.215Z,27.70
2022-11-05T12:15:00.226Z,27.70
2022-11-05T12:17:50.176Z,27.70
2022-11-05T12:20:57.991Z,27.70
2022-11-05T12:23:51.254Z,27.70
2022-11-05T12:26:46.927Z,27.70
2022-11-05T12:29:40.380Z,27.60
2022-11-05T12:32:50.392Z,27.50
2022-11-05T12:35:49.987Z,27.50
2022-11-05T12:38:46.973Z,27.40
2022-11-05T12:41:35.278Z,27.40
2022-11-05T12:44:33.264Z,27.40
2022-11-05T12:47:44.214Z,27.40
2022-11-05T12:50:56.660Z,27.30
2022-11-05T12:53:49.944Z,27.30
2022-11-05T12:56:59.755Z,27.20
2022-11-05T13:00:01.973Z,27.10
2022-11-05T13:02:47.811Z,27.10
2022-11-05T13:05:26.015Z,27.00
2022-11-05T13:08:16.996Z,26.90
2022-11-05T13:10:56.925Z,26.90
2022-11-05T13:13:43.610Z,26.80
2022-11-05T13:16:29.622Z,26.80
2022-11-05T13:19:18.958Z,26.70
2022-11-05T13:21:59.565Z,26.70
2022-11-05T13:24:46.617Z,26.60
2022-11-05T13:27:36.580Z,26.60
2022-11-05T13:30:08.841Z,26.50
2022-11-05T13:32:43.268Z,26.50
2022-11-05T13:35:46.170Z,26.40
2022-11-05T13:38:45.872Z,26.40
2022-11-05T13:41:37.461Z,26.30
2022-11-05T13:44:31.591Z,26.30
2022-11-05T13:47:22.691Z,26.30
2022-11-05T13:50:28.131Z,26.20
2022-11-05T13:53:23.154Z,26.20
2022-11-05T13:56:03.958Z,26.20
2022-11-05T13:59:06.769Z,26.10
2022-11-05T14:02:02.660Z,26.10
2022-11-05T14:04:48.649Z,26.00
2022-11-05T14:07:31.329Z,26.00
2022-11-05T14:10:32.500Z,26.00
2022-11-05T14:13:30.212Z,26.00
2022-11-05T14:16:17.403Z,25.90
2022-11-05T14:19:20.307Z,25.90
2022-11-05T14:21:50.688Z,25.90
2022-11-05T14:24:28.440Z,25.80
2022-11-05T14:27:03.675Z,25.80
2022-11-05T14:29:48.967Z,25.70
2022-11-05T14:32:26.945Z,25.70
2022-11-05T14:35:17.379Z,25.70
2022-11-05T14:37:59.009Z,25.60
2022-11-05T14:40:43.249Z,25.60
2022-11-05T14:43:25.791Z,25.60
2022-11-05T14:46:08.957Z,25.50
2022-11-05T14:49:08.141Z,25.50
2022-11-05T14:51:46.758Z,25.50
2022-11-05T14:54:22.034Z,25.40
2022-11-05T14:56:57.958Z,25.40
2022-11-05T14:59:29.221Z,25.30
2022-11-05T15:02:02.664Z,25.30
2022-11-05T15:04:41.419Z,25.30
2022-11-05T15:07:10.498Z,25.20
2022-11-05T15:09:56.014Z,25.20
2022-11-05T15:12:47.871Z,25.20
2022-11-05T15:15:32.897Z,25.10
2022-11-05T15:18:31.494Z,25.10
2022-11-05T15:21:05.843Z,25.10
2022-11-05T15:23:46.383Z,25.10
2022-11-05T15:26:46.048Z,25.10
2022-11-05T15:29:29.391Z,25.00
2022-11-05T15:32:00.517Z,25.00
2022-11-05T15:34:38.686Z,25.00
2022-11-05T15:37:14.533Z,24.90
2022-11-05T15:39:48.045Z,24.90
2022-11-05T15:42:23.248Z,24.90
2022-11-05T15:44:58.070Z,24.80
2022-11-05T15:47:30.003Z,24.80
2022-11-05T15:50:03.324Z,24.80
2022-11-05T15:52:52.617Z,24.70
2022-11-05T15:55:28.325Z,24.70
2022-11-05T15:58:08.189Z,24.70
2022-11-05T16:00:38.510Z,24.70
2022-11-05T16:03:21.090Z,24.70
2022-11-05T16:05:51.232Z,24.60
2022-11-05T16:08:35.238Z,24.60
2022-11-05T16:11:05.004Z,24.60
2022-11-05T16:13:41.086Z,24.60
2022-11-05T16:16:16.213Z,24.50
2022-11-05T16:18:47.094Z,24.50
2022-11-05T16:21:25.151Z,24.50
2022-11-05T16:23:57.826Z,24.50
2022-11-05T16:29:41.398Z,24.50
2022-11-05T16:32:39.950Z,24.50
2022-11-05T16:35:22.866Z,24.50
2022-11-05T16:37:53.807Z,24.50
2022-11-05T16:40:27.927Z,24.50
2022-11-05T16:43:29.712Z,24.50
2022-11-05T16:46:03.116Z,24.50
2022-11-05T16:48:32.168Z,24.50
2022-11-05T16:51:01.835Z,24.50
2022-11-05T16:53:30.964Z,24.50
2022-11-05T16:56:00.062Z,24.50
2022-11-05T16:58:29.319Z,24.40
2022-11-05T17:01:09.063Z,24.40
2022-11-05T17:03:38.279Z,24.40
2022-11-05T17:06:07.869Z,24.40
2022-11-05T17:08:37.564Z,24.40
2022-11-05T17:11:07.857Z,24.40
2022-11-05T17:13:37.042Z,24.40
2022-11-05T17:16:06.420Z,24.40
2022-11-05T17:18:35.492Z,24.40
2022-11-05T17:21:04.878Z,24.40
2022-11-05T17:23:35.258Z,24.40
2022-11-05T17:26:11.896Z,24.40
2022-11-05T17:28:41.803Z,24.30
2022-11-05T17:31:14.503Z,24.30
2022-11-05T17:33:44.089Z,24.30
2022-11-05T17:36:17.231Z,24.30
2022-11-05T17:38:47.099Z,24.30
2022-11-05T17:41:23.557Z,24.20
2022-11-05T17:43:58.827Z,24.20
2022-11-05T17:46:29.749Z,24.20
2022-11-05T17:48:58.937Z,24.20
2022-11-05T17:51:28.183Z,24.10
2022-11-05T17:53:57.353Z,24.10
2022-11-05T17:56:34.092Z,24.00
2022-11-05T17:59:05.168Z,24.00
2022-11-05T18:01:44.066Z,24.00
2022-11-05T18:04:13.665Z,24.00
2022-11-05T18:06:43.295Z,23.90
2022-11-05T18:09:15.059Z,23.90
2022-11-05T18:11:44.764Z,23.90
2022-11-05T18:14:13.960Z,23.80
2022-11-05T18:16:43.446Z,23.80
2022-11-05T18:19:12.745Z,23.80
2022-11-05T18:21:41.979Z,23.80
2022-11-05T18:24:11.495Z,23.70
2022-11-05T18:26:40.648Z,23.70
2022-11-05T18:29:09.894Z,23.70
2022-11-05T18:31:39.360Z,23.60
2022-11-05T18:34:08.766Z,23.60
2022-11-05T18:36:37.946Z,23.60
2022-11-05T18:39:07.884Z,23.50
2022-11-05T18:41:37.146Z,23.50
2022-11-05T18:44:07.074Z,23.50
2022-11-05T18:46:57.027Z,23.40
2022-11-05T18:49:26.097Z,23.40
2022-11-05T18:51:55.693Z,23.40
2022-11-05T18:54:24.945Z,23.30
2022-11-05T18:56:54.101Z,23.30
2022-11-05T18:59:37.107Z,23.30
2022-11-05T19:02:09.066Z,23.20
2022-11-05T19:04:39.389Z,23.20
2022-11-05T19:07:10.575Z,23.20
2022-11-05T19:09:41.093Z,23.20
2022-11-05T19:12:10.560Z,23.20
2022-11-05T19:14:39.682Z,23.20
2022-11-05T19:17:08.853Z,23.20
2022-11-05T19:19:38.758Z,23.20
2022-11-05T19:22:07.917Z,23.20
2022-11-05T19:24:37.106Z,23.10
2022-11-05T19:27:06.272Z,23.10
2022-11-05T19:29:35.579Z,23.10
2022-11-05T19:32:04.876Z,23.10
2022-11-05T19:34:34.012Z,23.10
2022-11-05T19:37:03.614Z,23.10
2022-11-05T19:39:33.505Z,23.00
2022-11-05T19:42:04.725Z,23.00
2022-11-05T19:44:34.544Z,23.00
2022-11-05T19:47:03.824Z,23.00
2022-11-05T19:49:33.035Z,23.00
2022-11-05T19:52:02.154Z,23.00
2022-11-05T19:54:31.430Z,23.00
2022-11-05T19:57:00.726Z,22.90
2022-11-05T19:59:29.934Z,22.90
2022-11-05T20:01:59.227Z,22.90
2022-11-05T20:04:28.491Z,22.90
2022-11-05T20:06:57.620Z,22.90
2022-11-05T20:09:26.865Z,22.90
2022-11-05T20:11:57.322Z,22.90
2022-11-05T20:14:27.723Z,22.80
2022-11-05T20:16:56.987Z,22.80
2022-11-05T20:19:26.226Z,22.80
2022-11-05T20:21:55.395Z,22.80
2022-11-05T20:24:25.616Z,22.80
2022-11-05T20:26:57.394Z,22.80
2022-11-05T20:29:33.927Z,22.70
2022-11-05T20:32:06.080Z,22.70
2022-11-05T20:34:36.354Z,22.70
2022-11-05T20:37:05.771Z,22.70
2022-11-05T20:39:35.655Z,22.60
2022-11-05T20:42:04.998Z,22.60
2022-11-05T20:44:34.190Z,22.60
2022-11-05T20:47:03.440Z,22.60
2022-11-05T20:49:32.626Z,22.60
2022-11-05T20:52:01.782Z,22.60
2022-11-05T20:54:30.903Z,22.60
2022-11-05T20:57:00.113Z,22.60
2022-11-05T20:59:31.750Z,22.50
2022-11-05T21:02:00.966Z,22.50
2022-11-05T21:04:30.302Z,22.50
2022-11-05T21:06:59.495Z,22.60
2022-11-05T21:09:28.793Z,22.60
2022-11-05T21:12:13.268Z,22.60
2022-11-05T21:14:44.516Z,22.50
2022-11-05T21:17:15.381Z,22.50
2022-11-05T21:19:44.611Z,22.50
2022-11-05T21:22:17.657Z,22.50
2022-11-05T21:24:46.775Z,22.50
2022-11-05T21:27:15.961Z,22.40
2022-11-05T21:29:45.191Z,22.40
2022-11-05T21:32:14.404Z,22.30
2022-11-05T21:34:43.634Z,22.30
2022-11-05T21:37:12.782Z,22.20
2022-11-05T21:39:42.645Z,22.20
2022-11-05T21:42:11.842Z,22.20
2022-11-05T21:44:41.025Z,22.10
2022-11-05T21:47:10.557Z,22.10
2022-11-05T21:49:39.930Z,22.10
2022-11-05T21:52:29.475Z,22.00
2022-11-05T21:55:17.636Z,22.00
2022-11-05T21:58:05.144Z,22.00
2022-11-05T22:00:34.383Z,22.00
2022-11-05T22:03:03.442Z,22.00
2022-11-05T22:05:32.806Z,22.00
2022-11-05T22:08:02.080Z,22.00
2022-11-05T22:10:31.148Z,22.00
2022-11-05T22:13:00.224Z,21.90
2022-11-05T22:15:30.075Z,21.90
2022-11-05T22:17:59.212Z,21.90
2022-11-05T22:20:28.351Z,21.90
2022-11-05T22:22:57.472Z,21.90
2022-11-05T22:25:26.598Z,21.90
2022-11-05T22:27:55.764Z,21.90
2022-11-05T22:30:24.825Z,21.90
2022-11-05T22:32:53.925Z,21.90
2022-11-05T22:35:23.045Z,21.90
2022-11-05T22:37:52.486Z,21.90
2022-11-05T22:40:23.958Z,21.90
2022-11-05T22:42:53.512Z,21.80
2022-11-05T22:45:22.634Z,21.80
2022-11-05T22:47:51.765Z,21.80
2022-11-05T22:50:20.977Z,21.70
2022-11-05T22:52:50.144Z,21.60
2022-11-05T22:55:19.454Z,21.60
2022-11-05T22:57:48.677Z,21.60
2022-11-05T23:00:19.765Z,21.50
2022-11-05T23:02:49.031Z,21.50
2022-11-05T23:05:18.437Z,21.50
2022-11-05T23:08:05.745Z,21.40
2022-11-05T23:10:53.285Z,21.40
2022-11-05T23:13:22.454Z,21.40
2022-11-05T23:16:09.781Z,21.30
2022-11-05T23:18:57.331Z,21.30
2022-11-05T23:21:44.573Z,21.30
2022-11-05T23:24:15.141Z,21.20
2022-11-05T23:26:53.403Z,21.20
2022-11-05T23:29:25.912Z,21.20
2022-11-05T23:32:14.099Z,21.20
2022-11-05T23:34:43.339Z,21.20
2022-11-05T23:37:30.956Z,21.20
2022-11-05T23:40:00.598Z,21.20
2022-11-05T23:42:47.674Z,21.10
2022-11-05T23:45:35.116Z,21.10
2022-11-05T23:48:36.622Z,21.10
2022-11-05T23:51:10.536Z,21.10
2022-11-05T23:53:42.543Z,21.10
2022-11-05T23:56:15.793Z,21.20
2022-11-05T23:58:45.056Z,21.20
